createdAt,value
2018-02-21T00:00:53.034Z,50.60
2018-02-21T00:01:53.023Z,50.90
2018-02-21T00:02:53.034Z,49.80
2018-02-21T00:03:53.054Z,51.30
2018-02-21T00:04:53.038Z,50.80
2018-02-21T00:05:53.067Z,50.20
2018-02-21T00:06:53.056Z,51.00
2018-02-21T00:07:53.061Z,51.70
2018-02-21T00:08:53.068Z,49.60
2018-02-21T00:09:53.083Z,51.00
2018-02-21T00:10:53.076Z,50.70
2018-02-21T00:11:53.081Z,51.90
2018-02-21T00:12:53.068Z,51.50
2018-02-21T00:13:53.140Z,52.20
2018-02-21T00:14:53.078Z,50.40
2018-02-21T00:15:53.126Z,50.60
2018-02-21T00:16:53.203Z,53.50
2018-02-21T00:17:53.109Z,51.60
2018-02-21T00:18:53.212Z,52.90
2018-02-21T00:19:53.092Z,51.70
2018-02-21T00:20:53.118Z,52.50
2018-02-21T00:21:53.112Z,50.00
2018-02-21T00:22:53.158Z,52.00
2018-02-21T00:23:53.120Z,52.00
2018-02-21T00:24:53.115Z,52.70
2018-02-21T00:25:53.119Z,53.50
2018-02-21T00:26:53.154Z,51.80
2018-02-21T00:27:53.131Z,52.10
2018-02-21T00:28:53.141Z,53.10
2018-02-21T00:29:53.214Z,52.40
2018-02-21T00:30:53.147Z,53.00
2018-02-21T00:31:53.220Z,53.20
2018-02-21T00:32:53.157Z,52.90
2018-02-21T00:33:53.152Z,52.90
2018-02-21T00:34:53.168Z,52.20
2018-02-21T00:35:53.171Z,52.20
2018-02-21T00:36:53.186Z,51.70
2018-02-21T00:37:53.180Z,51.50
2018-02-21T00:38:53.227Z,54.50
2018-02-21T00:39:53.211Z,53.80
2018-02-21T00:40:53.179Z,53.00
2018-02-21T00:41:53.189Z,53.00
2018-02-21T00:42:53.198Z,54.10
2018-02-21T00:43:53.201Z,52.50
2018-02-21T00:44:53.194Z,51.90
2018-02-21T00:45:53.220Z,53.30
2018-02-21T00:46:53.215Z,53.80
2018-02-21T00:47:53.211Z,52.30
2018-02-21T00:48:53.244Z,54.20
2018-02-21T00:49:53.265Z,53.30
2018-02-21T00:50:53.241Z,53.70
2018-02-21T00:51:53.253Z,55.20
2018-02-21T00:52:53.244Z,54.90
2018-02-21T00:53:53.276Z,51.90
2018-02-21T00:54:53.252Z,53.60
2018-02-21T00:55:53.233Z,54.20
2018-02-21T00:56:53.244Z,55.00
2018-02-21T00:57:53.247Z,53.70
2018-02-21T00:58:53.245Z,52.80
2018-02-21T00:59:53.249Z,53.70
2018-02-21T01:00:53.254Z,53.60
2018-02-21T01:01:53.262Z,52.40
2018-02-21T01:02:53.285Z,55.50
2018-02-21T01:03:53.298Z,55.40
2018-02-21T01:04:53.283Z,55.20
2018-02-21T01:05:53.279Z,55.20
2018-02-21T01:06:53.287Z,54.80
2018-02-21T01:07:53.284Z,55.50
2018-02-21T01:08:53.301Z,56.80
2018-02-21T01:09:53.287Z,56.60
2018-02-21T01:10:53.298Z,56.60
2018-02-21T01:11:53.310Z,55.50
2018-02-21T01:12:53.358Z,56.40
2018-02-21T01:13:53.322Z,54.80
2018-02-21T01:14:53.320Z,56.20
2018-02-21T01:15:53.338Z,55.30
2018-02-21T01:16:53.334Z,54.50
2018-02-21T01:17:53.326Z,56.00
2018-02-21T01:18:53.334Z,54.90
2018-02-21T01:19:53.348Z,55.80
2018-02-21T01:20:53.359Z,56.40
2018-02-21T01:21:53.336Z,56.30
2018-02-21T01:22:53.329Z,55.40
2018-02-21T01:23:53.339Z,56.80
2018-02-21T01:24:53.383Z,56.40
2018-02-21T01:25:53.347Z,55.80
2018-02-21T01:26:53.353Z,55.80
2018-02-21T01:27:53.350Z,54.90
2018-02-21T01:28:53.414Z,56.80
2018-02-21T01:29:53.390Z,57.00
2018-02-21T01:30:53.369Z,56.80
2018-02-21T01:31:53.385Z,56.80
2018-02-21T01:32:53.392Z,56.30
2018-02-21T01:33:53.394Z,57.30
2018-02-21T01:34:53.380Z,55.50
2018-02-21T01:35:53.491Z,54.30
2018-02-21T01:36:53.402Z,58.70
2018-02-21T01:37:53.390Z,57.70
2018-02-21T01:38:53.428Z,56.30
2018-02-21T01:39:53.413Z,56.90
2018-02-21T01:40:53.416Z,58.50
2018-02-21T01:41:53.414Z,56.40
2018-02-21T01:42:53.438Z,58.00
2018-02-21T01:43:53.440Z,57.30
2018-02-21T01:44:53.435Z,57.30
2018-02-21T01:45:53.432Z,57.40
2018-02-21T01:46:53.443Z,58.90
2018-02-21T01:47:53.468Z,58.30
2018-02-21T01:48:53.464Z,58.40
2018-02-21T01:49:53.458Z,57.20
2018-02-21T01:50:53.454Z,57.30
2018-02-21T01:51:53.451Z,55.20
2018-02-21T01:52:53.456Z,57.30
2018-02-21T01:53:53.468Z,58.90
2018-02-21T01:54:53.499Z,58.70
2018-02-21T01:55:53.486Z,57.00
2018-02-21T01:56:53.470Z,57.80
2018-02-21T01:57:53.491Z,57.60
2018-02-21T01:58:53.491Z,57.60
2018-02-21T01:59:53.480Z,57.80
2018-02-21T02:00:53.478Z,56.20
2018-02-21T02:01:53.481Z,56.50
2018-02-21T02:02:53.513Z,57.30
2018-02-21T02:03:53.483Z,56.50
2018-02-21T02:04:53.499Z,59.10
2018-02-21T02:05:53.496Z,58.20
2018-02-21T02:06:53.532Z,57.20
2018-02-21T02:07:53.526Z,58.80
2018-02-21T02:08:53.504Z,57.50
2018-02-21T02:09:53.518Z,55.60
2018-02-21T02:10:53.515Z,59.60
2018-02-21T02:11:53.529Z,58.00
2018-02-21T02:12:53.532Z,57.90
2018-02-21T02:13:53.532Z,56.70
2018-02-21T02:14:53.539Z,57.90
2018-02-21T02:15:53.555Z,60.80
2018-02-21T02:16:53.639Z,57.80
2018-02-21T02:17:53.583Z,55.60
2018-02-21T02:18:53.542Z,59.00
2018-02-21T02:19:53.566Z,58.50
2018-02-21T02:20:53.554Z,57.70
2018-02-21T02:21:53.588Z,56.90
2018-02-21T02:22:53.590Z,58.30
2018-02-21T02:23:53.576Z,59.60
2018-02-21T02:24:53.604Z,59.30
2018-02-21T02:25:53.584Z,60.30
2018-02-21T02:26:53.588Z,59.20
2018-02-21T02:27:53.573Z,58.90
2018-02-21T02:28:53.603Z,57.30
2018-02-21T02:29:53.644Z,59.60
2018-02-21T02:30:53.595Z,59.50
2018-02-21T02:31:53.628Z,58.50
2018-02-21T02:32:53.601Z,58.70
2018-02-21T02:33:53.615Z,58.50
2018-02-21T02:34:53.618Z,57.20
2018-02-21T02:35:53.602Z,59.60
2018-02-21T02:36:53.608Z,58.80
2018-02-21T02:37:53.612Z,59.10
2018-02-21T02:38:53.618Z,58.20
2018-02-21T02:39:53.622Z,56.20
2018-02-21T02:40:53.654Z,58.40
2018-02-21T02:41:53.642Z,57.80
2018-02-21T02:42:53.676Z,60.30
2018-02-21T02:43:53.649Z,57.10
2018-02-21T02:44:53.653Z,59.40
2018-02-21T02:45:53.650Z,60.20
2018-02-21T02:46:53.657Z,58.20
2018-02-21T02:47:53.657Z,59.00
2018-02-21T02:48:53.687Z,59.60
2018-02-21T02:49:53.658Z,58.60
2018-02-21T02:50:53.678Z,57.40
2018-02-21T02:51:53.673Z,58.00
2018-02-21T02:52:53.661Z,60.20
2018-02-21T02:53:53.722Z,60.60
2018-02-21T02:54:53.690Z,59.90
2018-02-21T02:55:53.695Z,60.70
2018-02-21T02:56:53.722Z,58.10
2018-02-21T02:57:53.783Z,60.70
2018-02-21T02:58:53.690Z,60.00
2018-02-21T02:59:53.703Z,59.00
2018-02-21T03:00:53.705Z,59.80
2018-02-21T03:01:53.729Z,60.70
2018-02-21T03:02:53.718Z,59.30
2018-02-21T03:03:53.722Z,59.70
2018-02-21T03:04:53.715Z,60.80
2018-02-21T03:05:53.716Z,61.90
2018-02-21T03:06:53.758Z,59.80
2018-02-21T03:07:53.746Z,59.00
2018-02-21T03:08:53.721Z,57.60
2018-02-21T03:09:53.740Z,59.80
2018-02-21T03:10:53.738Z,58.20
2018-02-21T03:11:53.729Z,58.40
2018-02-21T03:12:53.745Z,57.30
2018-02-21T03:13:53.745Z,55.40
2018-02-21T03:14:53.744Z,59.80
2018-02-21T03:15:53.770Z,59.20
2018-02-21T03:16:53.763Z,60.50
2018-02-21T03:17:53.756Z,60.70
2018-02-21T03:18:53.794Z,58.80
2018-02-21T03:19:53.768Z,58.50
2018-02-21T03:20:54.626Z,61.40
2018-02-21T03:21:53.767Z,59.40
2018-02-21T03:22:53.780Z,57.90
2018-02-21T03:23:53.777Z,60.00
2018-02-21T03:24:53.790Z,58.00
2018-02-21T03:25:53.772Z,59.10
2018-02-21T03:26:53.784Z,58.50
2018-02-21T03:27:53.793Z,59.10
2018-02-21T03:28:53.787Z,58.20
2018-02-21T03:29:53.801Z,58.90
2018-02-21T03:30:53.881Z,58.90
2018-02-21T03:31:53.864Z,58.00
2018-02-21T03:32:53.908Z,59.00
2018-02-21T03:33:53.812Z,58.50
2018-02-21T03:34:53.814Z,57.70
2018-02-21T03:35:53.823Z,57.80
2018-02-21T03:36:53.813Z,57.20
2018-02-21T03:37:53.826Z,57.80
2018-02-21T03:38:53.829Z,57.00
2018-02-21T03:39:53.842Z,57.90
2018-02-21T03:40:53.825Z,57.40
2018-02-21T03:41:53.904Z,56.10
2018-02-21T03:42:53.840Z,56.40
2018-02-21T03:43:53.854Z,55.60
2018-02-21T03:44:53.842Z,57.10
2018-02-21T03:45:53.860Z,56.40
2018-02-21T03:46:53.887Z,56.40
2018-02-21T03:47:53.847Z,55.10
2018-02-21T03:48:53.852Z,57.10
2018-02-21T03:49:53.866Z,56.80
2018-02-21T03:50:53.892Z,55.00
2018-02-21T03:51:54.008Z,55.70
2018-02-21T03:52:53.883Z,57.50
2018-02-21T03:53:53.882Z,56.70
2018-02-21T03:54:53.900Z,53.20
2018-02-21T03:55:53.903Z,56.60
2018-02-21T03:56:53.884Z,57.60
2018-02-21T03:57:53.882Z,54.50
2018-02-21T03:58:53.888Z,55.70
2018-02-21T03:59:53.884Z,55.60
2018-02-21T04:00:53.911Z,55.20
2018-02-21T04:01:53.905Z,56.60
2018-02-21T04:02:53.933Z,52.90
2018-02-21T04:03:53.916Z,54.80
2018-02-21T04:04:53.967Z,56.00
2018-02-21T04:05:53.914Z,54.40
2018-02-21T04:06:53.914Z,54.00
2018-02-21T04:07:53.962Z,55.50
2018-02-21T04:08:53.936Z,55.10
2018-02-21T04:09:53.945Z,53.70
2018-02-21T04:10:53.954Z,55.00
2018-02-21T04:11:53.920Z,52.20
2018-02-21T04:12:53.929Z,55.00
2018-02-21T04:13:53.946Z,54.70
2018-02-21T04:14:54.625Z,55.00
2018-02-21T04:15:53.956Z,55.50
2018-02-21T04:16:53.966Z,55.60
2018-02-21T04:17:53.987Z,53.50
2018-02-21T04:18:53.977Z,55.40
2018-02-21T04:19:53.984Z,54.20
2018-02-21T04:20:53.968Z,54.30
2018-02-21T04:21:53.984Z,56.80
2018-02-21T04:22:53.982Z,53.60
2018-02-21T04:23:53.997Z,53.50
2018-02-21T04:24:53.976Z,53.40
2018-02-21T04:25:53.973Z,55.00
2018-02-21T04:26:53.972Z,55.60
2018-02-21T04:27:53.986Z,53.50
2018-02-21T04:28:53.993Z,53.90
2018-02-21T04:29:53.993Z,53.20
2018-02-21T04:30:54.043Z,52.80
2018-02-21T04:31:53.998Z,54.30
2018-02-21T04:32:54.086Z,53.30
2018-02-21T04:33:54.029Z,52.80
2018-02-21T04:34:54.018Z,52.70
2018-02-21T04:35:54.504Z,53.80
2018-02-21T04:36:54.396Z,54.60
2018-02-21T04:37:54.012Z,55.60
2018-02-21T04:38:54.016Z,54.50
2018-02-21T04:39:54.038Z,54.30
2018-02-21T04:40:54.044Z,54.60
2018-02-21T04:41:54.035Z,53.90
2018-02-21T04:42:54.035Z,54.30
2018-02-21T04:43:54.037Z,55.00
2018-02-21T04:44:54.061Z,52.70
2018-02-21T04:45:54.134Z,54.40
2018-02-21T04:46:54.052Z,53.90
2018-02-21T04:47:54.042Z,53.40
2018-02-21T04:48:54.083Z,52.10
2018-02-21T04:49:54.045Z,53.80
2018-02-21T04:50:54.049Z,53.00
2018-02-21T04:51:54.071Z,54.00
2018-02-21T04:52:54.078Z,54.30
2018-02-21T04:53:54.069Z,52.60
2018-02-21T04:54:54.223Z,52.90
2018-02-21T04:55:54.096Z,53.70
2018-02-21T04:56:54.102Z,52.30
2018-02-21T04:57:54.085Z,52.70
2018-02-21T04:58:54.077Z,51.50
2018-02-21T04:59:54.079Z,53.00
2018-02-21T05:00:54.093Z,54.10
2018-02-21T05:01:54.104Z,51.60
2018-02-21T05:02:54.111Z,51.60
2018-02-21T05:03:54.105Z,52.60
2018-02-21T05:04:54.118Z,52.40
2018-02-21T05:05:54.108Z,54.60
2018-02-21T05:06:54.109Z,51.90
2018-02-21T05:07:54.119Z,52.20
2018-02-21T05:08:54.135Z,52.40
2018-02-21T05:09:54.114Z,54.10
2018-02-21T05:10:54.173Z,53.70
2018-02-21T05:11:54.239Z,51.70
2018-02-21T05:12:54.151Z,52.70
2018-02-21T05:13:54.186Z,52.90
2018-02-21T05:14:54.162Z,54.80
2018-02-21T05:15:54.141Z,53.60
2018-02-21T05:16:54.144Z,52.20
2018-02-21T05:17:54.158Z,52.90
2018-02-21T05:18:54.163Z,52.30
2018-02-21T05:19:54.182Z,51.60
2018-02-21T05:20:54.147Z,51.20
2018-02-21T05:21:54.165Z,51.30
2018-02-21T05:22:54.170Z,52.00
2018-02-21T05:23:54.160Z,52.30
2018-02-21T05:24:54.167Z,52.40
2018-02-21T05:25:54.185Z,53.50
2018-02-21T05:26:55.124Z,54.00
2018-02-21T05:27:54.197Z,52.40
2018-02-21T05:28:54.174Z,51.40
2018-02-21T05:29:54.190Z,50.50
2018-02-21T05:30:54.216Z,52.60
2018-02-21T05:31:54.200Z,52.10
2018-02-21T05:32:54.210Z,52.40
2018-02-21T05:33:54.187Z,51.30
2018-02-21T05:34:54.197Z,52.20
2018-02-21T05:35:54.198Z,50.30
2018-02-21T05:36:54.201Z,51.10
2018-02-21T05:37:54.213Z,51.20
2018-02-21T05:38:54.219Z,53.30
2018-02-21T05:39:54.233Z,52.30
2018-02-21T05:40:54.207Z,54.60
2018-02-21T05:41:54.246Z,51.70
2018-02-21T05:42:54.229Z,53.10
2018-02-21T05:43:54.229Z,52.90
2018-02-21T05:44:54.240Z,52.30
2018-02-21T05:45:54.246Z,52.90
2018-02-21T05:46:54.233Z,54.00
2018-02-21T05:47:54.249Z,53.50
2018-02-21T05:48:54.277Z,52.40
2018-02-21T05:49:54.239Z,52.80
2018-02-21T05:50:54.261Z,52.10
2018-02-21T05:51:54.254Z,53.40
2018-02-21T05:52:55.128Z,53.00
2018-02-21T05:53:54.302Z,54.10
2018-02-21T05:54:54.323Z,52.30
2018-02-21T05:55:54.266Z,54.50
2018-02-21T05:56:54.267Z,52.70
2018-02-21T05:57:54.306Z,53.50
2018-02-21T05:58:54.290Z,55.00
2018-02-21T05:59:54.279Z,52.00
2018-02-21T06:00:54.269Z,53.50
2018-02-21T06:01:54.274Z,51.60
2018-02-21T06:02:54.279Z,53.40
2018-02-21T06:03:54.326Z,52.30
2018-02-21T06:04:54.349Z,52.00
2018-02-21T06:05:54.323Z,52.60
2018-02-21T06:06:54.313Z,52.50
2018-02-21T06:07:54.297Z,53.60
2018-02-21T06:08:54.318Z,54.00
2018-02-21T06:09:54.390Z,52.70
2018-02-21T06:10:54.344Z,53.20
2018-02-21T06:11:54.332Z,49.80
2018-02-21T06:12:54.346Z,52.00
2018-02-21T06:13:54.318Z,52.20
2018-02-21T06:14:54.353Z,51.30
2018-02-21T06:15:54.332Z,49.90
2018-02-21T06:16:54.325Z,52.10
2018-02-21T06:17:54.318Z,50.40
2018-02-21T06:18:54.329Z,51.50
2018-02-21T06:19:54.342Z,50.10
2018-02-21T06:20:54.344Z,49.60
2018-02-21T06:21:54.348Z,51.20
2018-02-21T06:22:54.359Z,51.70
2018-02-21T06:23:54.372Z,50.20
2018-02-21T06:24:54.383Z,53.00
2018-02-21T06:25:54.374Z,53.00
2018-02-21T06:26:54.347Z,52.80
2018-02-21T06:27:54.371Z,53.30
2018-02-21T06:28:54.395Z,50.10
2018-02-21T06:29:54.358Z,53.80
2018-02-21T06:30:54.377Z,51.90
2018-02-21T06:31:54.411Z,53.00
2018-02-21T06:32:54.403Z,52.20
2018-02-21T06:33:54.501Z,53.20
2018-02-21T06:34:54.411Z,52.30
2018-02-21T06:35:54.414Z,52.10
2018-02-21T06:36:54.377Z,50.50
2018-02-21T06:37:54.384Z,51.30
2018-02-21T06:38:54.402Z,51.80
2018-02-21T06:39:54.468Z,52.20
2018-02-21T06:40:54.396Z,51.60
2018-02-21T06:41:54.394Z,51.60
2018-02-21T06:42:54.412Z,52.40
2018-02-21T06:43:54.425Z,50.90
2018-02-21T06:44:54.409Z,52.70
2018-02-21T06:45:54.421Z,51.80
2018-02-21T06:46:55.123Z,53.80
2018-02-21T06:47:54.408Z,51.50
2018-02-21T06:48:54.445Z,51.30
2018-02-21T06:49:54.425Z,51.90
2018-02-21T06:50:54.422Z,51.40
2018-02-21T06:51:54.460Z,50.30
2018-02-21T06:52:54.451Z,52.00
2018-02-21T06:53:54.437Z,49.70
2018-02-21T06:54:54.478Z,50.40
2018-02-21T06:55:54.456Z,50.30
2018-02-21T06:56:54.454Z,51.80
2018-02-21T06:57:54.451Z,51.00
2018-02-21T06:58:54.462Z,51.60
2018-02-21T06:59:54.459Z,50.60
2018-02-21T07:00:54.471Z,52.80
2018-02-21T07:01:54.462Z,51.10
2018-02-21T07:02:54.453Z,50.90
2018-02-21T07:03:54.457Z,49.90
2018-02-21T07:04:54.537Z,49.80
2018-02-21T07:05:54.499Z,50.30
2018-02-21T07:06:54.486Z,51.40
2018-02-21T07:07:54.517Z,51.10
2018-02-21T07:08:54.465Z,49.90
2018-02-21T07:09:54.488Z,50.20
2018-02-21T07:10:54.499Z,50.80
2018-02-21T07:11:54.485Z,49.00
2018-02-21T07:12:54.494Z,51.40
2018-02-21T07:13:54.500Z,50.60
2018-02-21T07:14:54.520Z,50.90
2018-02-21T07:15:54.497Z,52.00
2018-02-21T07:16:54.496Z,49.50
2018-02-21T07:17:54.558Z,51.00
2018-02-21T07:18:54.521Z,50.00
2018-02-21T07:19:54.513Z,51.40
2018-02-21T07:20:54.547Z,50.10
2018-02-21T07:21:54.570Z,50.50
2018-02-21T07:22:54.515Z,47.80
2018-02-21T07:23:54.562Z,51.20
2018-02-21T07:24:54.559Z,51.80
2018-02-21T07:25:54.524Z,49.40
2018-02-21T07:26:54.539Z,51.40
2018-02-21T07:27:54.543Z,52.80
2018-02-21T07:28:54.533Z,51.00
2018-02-21T07:29:54.544Z,53.50
2018-02-21T07:30:54.564Z,49.60
2018-02-21T07:31:54.560Z,50.70
2018-02-21T07:32:54.544Z,47.80
2018-02-21T07:33:54.548Z,48.40
2018-02-21T07:34:54.593Z,47.50
2018-02-21T07:35:54.592Z,49.40
2018-02-21T07:36:54.587Z,48.50
2018-02-21T07:37:54.583Z,46.90
2018-02-21T07:38:54.656Z,48.10
2018-02-21T07:39:54.597Z,50.10
2018-02-21T07:40:54.618Z,50.90
2018-02-21T07:41:54.581Z,47.90
2018-02-21T07:42:54.584Z,47.00
2018-02-21T07:43:54.608Z,48.10
2018-02-21T07:44:54.601Z,48.00
2018-02-21T07:45:54.594Z,47.10
2018-02-21T07:46:54.595Z,47.40
2018-02-21T07:47:54.593Z,50.10
2018-02-21T07:48:54.612Z,48.90
2018-02-21T07:49:54.614Z,49.60
2018-02-21T07:50:54.625Z,48.70
2018-02-21T07:51:54.617Z,48.90
2018-02-21T07:52:54.611Z,47.40
2018-02-21T07:53:54.615Z,47.20
2018-02-21T07:54:54.620Z,47.30
2018-02-21T07:55:54.703Z,47.70
2018-02-21T07:56:54.636Z,48.20
2018-02-21T07:57:54.663Z,48.50
2018-02-21T07:58:54.644Z,48.30
2018-02-21T07:59:54.670Z,48.10
2018-02-21T08:00:54.703Z,47.50
2018-02-21T08:01:54.669Z,49.30
2018-02-21T08:02:54.668Z,49.60
2018-02-21T08:03:54.695Z,48.50
2018-02-21T08:04:54.662Z,47.90
2018-02-21T08:05:54.668Z,48.20
2018-02-21T08:06:54.679Z,48.50
2018-02-21T08:07:54.683Z,48.50
2018-02-21T08:08:54.828Z,49.30
2018-02-21T08:09:54.695Z,47.30
2018-02-21T08:10:54.710Z,49.00
2018-02-21T08:11:54.708Z,48.30
2018-02-21T08:12:54.711Z,46.50
2018-02-21T08:13:54.726Z,46.10
2018-02-21T08:14:54.724Z,47.20
2018-02-21T08:15:54.733Z,46.10
2018-02-21T08:16:54.727Z,45.40
2018-02-21T08:17:54.775Z,46.00
2018-02-21T08:18:54.747Z,45.10
2018-02-21T08:19:54.776Z,49.00
2018-02-21T08:20:54.788Z,46.30
2018-02-21T08:21:54.772Z,45.00
2018-02-21T08:22:54.794Z,43.50
2018-02-21T08:23:54.790Z,45.50
2018-02-21T08:24:54.802Z,45.80
2018-02-21T08:25:54.803Z,46.00
2018-02-21T08:26:54.806Z,46.20
2018-02-21T08:27:54.815Z,48.40
2018-02-21T08:28:54.840Z,47.10
2018-02-21T08:29:54.840Z,46.10
2018-02-21T08:30:54.845Z,46.50
2018-02-21T08:31:54.938Z,46.60
2018-02-21T08:32:54.890Z,46.50
2018-02-21T08:33:54.898Z,46.90
2018-02-21T08:34:54.891Z,46.20
2018-02-21T08:35:54.920Z,47.00
2018-02-21T08:36:54.932Z,48.20
2018-02-21T08:37:54.944Z,47.40
2018-02-21T08:38:54.944Z,45.30
2018-02-21T08:39:54.952Z,45.10
2018-02-21T08:40:54.956Z,46.00
2018-02-21T08:41:54.981Z,46.40
2018-02-21T08:42:54.986Z,48.20
2018-02-21T08:43:55.004Z,45.80
2018-02-21T08:44:55.006Z,45.40
2018-02-21T08:45:55.004Z,45.70
2018-02-21T08:46:55.048Z,45.60
2018-02-21T08:47:55.046Z,45.00
2018-02-21T08:48:55.058Z,46.20
2018-02-21T08:49:55.097Z,45.90
2018-02-21T08:50:55.077Z,45.50
2018-02-21T08:51:55.094Z,45.40
2018-02-21T08:52:55.103Z,44.60
2018-02-21T08:53:55.128Z,45.50
2018-02-21T08:54:55.167Z,45.90
2018-02-21T08:55:55.168Z,46.30
2018-02-21T08:56:55.274Z,47.10
2018-02-21T08:57:55.176Z,46.20
2018-02-21T08:58:55.192Z,45.40
2018-02-21T08:59:55.202Z,45.00
2018-02-21T09:00:55.196Z,45.20
2018-02-21T09:01:55.224Z,45.20
2018-02-21T09:02:55.239Z,42.50
2018-02-21T09:03:55.234Z,42.00
2018-02-21T09:04:55.247Z,44.40
2018-02-21T09:05:55.298Z,43.10
2018-02-21T09:06:55.277Z,43.50
2018-02-21T09:07:55.316Z,42.70
2018-02-21T09:08:55.460Z,42.40
2018-02-21T09:09:55.318Z,41.10
2018-02-21T09:10:55.330Z,43.40
2018-02-21T09:11:55.358Z,41.60
2018-02-21T09:12:55.353Z,41.70
2018-02-21T09:13:55.362Z,42.20
2018-02-21T09:14:55.410Z,42.00
2018-02-21T09:15:55.387Z,41.50
2018-02-21T09:16:56.137Z,40.20
2018-02-21T09:17:55.445Z,41.90
2018-02-21T09:18:55.434Z,41.90
2018-02-21T09:19:55.458Z,41.60
2018-02-21T09:20:55.469Z,41.50
2018-02-21T09:21:55.522Z,40.00
2018-02-21T09:22:55.547Z,43.60
2018-02-21T09:23:55.507Z,43.10
2018-02-21T09:24:55.549Z,40.30
2018-02-21T09:25:55.554Z,41.20
2018-02-21T09:26:55.606Z,40.30
2018-02-21T09:27:55.587Z,39.20
2018-02-21T09:28:55.575Z,41.90
2018-02-21T09:29:55.605Z,41.80
2018-02-21T09:30:55.612Z,40.20
2018-02-21T09:31:55.739Z,42.20
2018-02-21T09:32:55.650Z,40.90
2018-02-21T09:33:55.659Z,38.40
2018-02-21T09:34:55.676Z,39.00
2018-02-21T09:35:55.708Z,41.20
2018-02-21T09:36:55.699Z,41.70
2018-02-21T09:37:55.716Z,40.20
2018-02-21T09:38:55.785Z,40.70
2018-02-21T09:39:55.769Z,41.00
2018-02-21T09:40:55.769Z,40.60
2018-02-21T09:41:56.648Z,38.90
2018-02-21T09:42:55.845Z,38.10
2018-02-21T09:43:55.822Z,38.40
2018-02-21T09:44:55.871Z,39.30
2018-02-21T09:45:55.839Z,39.20
2018-02-21T09:46:55.855Z,38.80
2018-02-21T09:47:55.881Z,39.50
2018-02-21T09:48:55.886Z,38.10
2018-02-21T09:49:55.956Z,37.00
2018-02-21T09:50:55.957Z,38.50
2018-02-21T09:51:55.964Z,40.30
2018-02-21T09:52:55.978Z,37.80
2018-02-21T09:53:56.005Z,36.70
2018-02-21T09:54:56.015Z,37.40
2018-02-21T09:55:56.022Z,36.70
2018-02-21T09:56:56.023Z,39.00
2018-02-21T09:57:56.041Z,36.00
2018-02-21T09:58:56.040Z,37.20
2018-02-21T09:59:56.125Z,34.70
2018-02-21T10:00:56.125Z,36.50
2018-02-21T10:01:56.148Z,35.60
2018-02-21T10:02:56.127Z,35.60
2018-02-21T10:03:56.145Z,35.10
2018-02-21T10:04:56.161Z,34.40
2018-02-21T10:05:56.185Z,34.60
2018-02-21T10:06:56.198Z,35.20
2018-02-21T10:07:56.203Z,32.60
2018-02-21T10:08:56.214Z,35.60
2018-02-21T10:09:56.250Z,35.10
2018-02-21T10:10:56.260Z,34.30
2018-02-21T10:11:56.265Z,33.50
2018-02-21T10:12:56.304Z,32.70
2018-02-21T10:13:56.302Z,36.10
2018-02-21T10:14:56.310Z,32.90
2018-02-21T10:15:56.350Z,32.80
2018-02-21T10:16:56.350Z,32.50
2018-02-21T10:17:56.387Z,32.50
2018-02-21T10:18:56.398Z,33.80
2018-02-21T10:19:56.430Z,34.90
2018-02-21T10:20:56.413Z,34.40
2018-02-21T10:21:56.458Z,34.50
2018-02-21T10:22:56.492Z,33.50
2018-02-21T10:23:56.472Z,34.30
2018-02-21T10:24:56.484Z,34.20
2018-02-21T10:25:56.508Z,32.50
2018-02-21T10:26:56.526Z,33.20
2018-02-21T10:27:56.564Z,33.10
2018-02-21T10:28:56.570Z,33.40
2018-02-21T10:29:56.577Z,33.00
2018-02-21T10:30:56.607Z,33.30
2018-02-21T10:31:56.595Z,33.50
2018-02-21T10:32:56.630Z,33.70
2018-02-21T10:33:56.687Z,34.10
2018-02-21T10:34:56.685Z,33.70
2018-02-21T10:35:56.668Z,34.60
2018-02-21T10:36:56.702Z,33.70
2018-02-21T10:37:56.724Z,33.30
2018-02-21T10:38:56.718Z,34.30
2018-02-21T10:39:56.733Z,33.10
2018-02-21T10:40:56.803Z,33.40
2018-02-21T10:41:56.786Z,34.20
2018-02-21T10:42:56.829Z,32.10
2018-02-21T10:43:56.878Z,31.80
2018-02-21T10:44:56.843Z,32.40
2018-02-21T10:45:56.862Z,34.60
2018-02-21T10:46:56.860Z,33.90
2018-02-21T10:47:56.885Z,35.00
2018-02-21T10:48:56.940Z,33.00
2018-02-21T10:49:56.940Z,32.50
2018-02-21T10:50:56.977Z,32.20
2018-02-21T10:51:56.944Z,31.20
2018-02-21T10:52:56.975Z,33.00
2018-02-21T10:53:57.013Z,33.20
2018-02-21T10:54:57.011Z,31.30
2018-02-21T10:55:57.030Z,32.10
2018-02-21T10:56:57.044Z,30.60
2018-02-21T10:57:57.055Z,31.50
2018-02-21T10:58:57.094Z,32.00
2018-02-21T10:59:57.106Z,30.70
2018-02-21T11:00:57.105Z,30.80
2018-02-21T11:01:57.178Z,29.10
2018-02-21T11:02:57.174Z,31.40
2018-02-21T11:03:57.193Z,31.10
2018-02-21T11:04:57.271Z,31.60
2018-02-21T11:05:57.198Z,32.20
2018-02-21T11:06:57.218Z,31.30
2018-02-21T11:07:57.249Z,33.20
2018-02-21T11:08:57.282Z,30.90
2018-02-21T11:09:57.287Z,33.00
2018-02-21T11:10:57.289Z,31.80
2018-02-21T11:11:57.309Z,31.90
2018-02-21T11:12:57.389Z,30.00
2018-02-21T11:13:57.375Z,29.50
2018-02-21T11:14:57.377Z,29.50
2018-02-21T11:15:57.374Z,30.10
2018-02-21T11:16:57.394Z,29.90
2018-02-21T11:17:57.419Z,27.70
2018-02-21T11:18:57.452Z,28.50
2018-02-21T11:19:57.513Z,29.00
2018-02-21T11:20:57.492Z,28.90
2018-02-21T11:21:57.536Z,28.10
2018-02-21T11:22:57.536Z,30.10
2018-02-21T11:23:57.545Z,28.40
2018-02-21T11:24:57.547Z,28.90
2018-02-21T11:25:57.681Z,28.90
2018-02-21T11:26:57.586Z,28.60
2018-02-21T11:27:57.623Z,28.00
2018-02-21T11:28:57.653Z,30.40
2018-02-21T11:29:57.636Z,30.40
2018-02-21T11:30:57.713Z,30.30
2018-02-21T11:31:57.699Z,29.30
2018-02-21T11:32:57.722Z,28.40
2018-02-21T11:33:57.707Z,29.20
2018-02-21T11:34:57.742Z,28.10
2018-02-21T11:35:57.751Z,28.50
2018-02-21T11:36:57.839Z,29.00
2018-02-21T11:37:57.817Z,27.50
2018-02-21T11:38:57.803Z,27.80
2018-02-21T11:39:57.815Z,26.90
2018-02-21T11:40:57.865Z,27.60
2018-02-21T11:41:57.873Z,26.70
2018-02-21T11:42:57.896Z,26.40
2018-02-21T11:43:57.899Z,25.20
2018-02-21T11:44:57.937Z,27.60
2018-02-21T11:45:57.972Z,25.30
2018-02-21T11:46:57.956Z,25.80
2018-02-21T11:47:58.015Z,25.90
2018-02-21T11:48:57.977Z,27.00
2018-02-21T11:49:57.997Z,26.40
2018-02-21T11:50:58.041Z,27.00
2018-02-21T11:51:58.052Z,26.20
2018-02-21T11:52:58.712Z,25.20
2018-02-21T11:53:58.068Z,25.90
2018-02-21T11:54:58.121Z,24.70
2018-02-21T11:55:58.114Z,26.50
2018-02-21T11:56:58.148Z,29.20
2018-02-21T11:57:58.163Z,27.90
2018-02-21T11:58:58.220Z,28.60
2018-02-21T11:59:58.192Z,27.20
2018-02-21T12:00:58.269Z,27.50
2018-02-21T12:01:58.223Z,26.30
2018-02-21T12:02:58.265Z,24.70
2018-02-21T12:03:58.300Z,26.20
2018-02-21T12:04:58.404Z,26.50
2018-02-21T12:05:58.322Z,26.50
2018-02-21T12:06:58.338Z,26.10
2018-02-21T12:07:58.322Z,26.70
2018-02-21T12:08:58.389Z,27.70
2018-02-21T12:09:58.404Z,27.00
2018-02-21T12:10:58.387Z,27.10
2018-02-21T12:11:58.419Z,27.00
2018-02-21T12:12:58.435Z,28.20
2018-02-21T12:13:58.444Z,29.30
2018-02-21T12:14:58.469Z,25.90
2018-02-21T12:15:58.485Z,25.60
2018-02-21T12:16:58.510Z,25.30
2018-02-21T12:17:58.558Z,26.20
2018-02-21T12:18:58.617Z,23.40
2018-02-21T12:19:58.554Z,25.00
2018-02-21T12:20:58.601Z,26.10
2018-02-21T12:21:58.599Z,25.10
2018-02-21T12:22:58.618Z,26.10
2018-02-21T12:23:58.651Z,25.80
2018-02-21T12:24:58.746Z,26.00
2018-02-21T12:25:58.675Z,24.90
2018-02-21T12:26:58.684Z,25.90
2018-02-21T12:27:58.734Z,25.00
2018-02-21T12:28:58.737Z,26.20
2018-02-21T12:29:58.748Z,26.60
2018-02-21T12:30:58.772Z,26.20
2018-02-21T12:31:58.826Z,26.10
2018-02-21T12:32:58.800Z,25.70
2018-02-21T12:33:58.824Z,24.40
2018-02-21T12:34:58.906Z,25.20
2018-02-21T12:35:58.985Z,24.40
2018-02-21T12:36:58.892Z,24.30
2018-02-21T12:37:58.908Z,25.10
2018-02-21T12:38:58.955Z,25.80
2018-02-21T12:39:58.931Z,26.70
2018-02-21T12:40:58.978Z,28.00
2018-02-21T12:41:58.980Z,28.40
2018-02-21T12:42:58.982Z,27.00
2018-02-21T12:43:59.015Z,27.00
2018-02-21T12:44:59.193Z,28.50
2018-02-21T12:45:59.049Z,26.40
2018-02-21T12:46:59.065Z,27.80
2018-02-21T12:47:59.087Z,25.70
2018-02-21T12:48:59.102Z,26.00
2018-02-21T12:49:59.116Z,26.70
2018-02-21T12:50:59.131Z,26.20
2018-02-21T12:51:59.150Z,30.30
2018-02-21T12:52:59.222Z,28.30